sensor_id;sensor_type;location;lat;lon;timestamp;P1;durP1;ratioP1;P2;durP2;ratioP2
10309;SDS011;5200;43.236;27.986;2023-08-01T00:00:05;6.05;;;4.45;;
10309;SDS011;5200;43.236;27.986;2023-08-01T00:02:33;4.70;;;4.05;;
10309;SDS011;5200;43.236;27.986;2023-08-01T00:05:00;5.47;;;4.57;;
10309;SDS011;5200;43.236;27.986;2023-08-01T00:07:27;5.50;;;4.50;;
10309;SDS011;5200;43.236;27.986;2023-08-01T00:09:56;4.43;;;3.85;;
10309;SDS011;5200;43.236;27.986;2023-08-01T00:12:23;4.97;;;3.80;;
10309;SDS011;5200;43.236;27.986;2023-08-01T00:14:51;5.13;;;4.25;;
10309;SDS011;5200;43.236;27.986;2023-08-01T00:17:18;10.65;;;4.28;;
10309;SDS011;5200;43.236;27.986;2023-08-01T00:19:46;4.53;;;3.65;;
10309;SDS011;5200;43.236;27.986;2023-08-01T00:22:13;4.35;;;3.95;;
10309;SDS011;5200;43.236;27.986;2023-08-01T00:24:40;4.40;;;4.03;;
10309;SDS011;5200;43.236;27.986;2023-08-01T00:27:08;5.13;;;4.68;;
10309;SDS011;5200;43.236;27.986;2023-08-01T00:29:35;5.63;;;4.38;;
10309;SDS011;5200;43.236;27.986;2023-08-01T00:32:02;7.65;;;4.90;;
10309;SDS011;5200;43.236;27.986;2023-08-01T00:34:29;4.90;;;4.07;;
10309;SDS011;5200;43.236;27.986;2023-08-01T00:36:56;4.70;;;4.30;;
10309;SDS011;5200;43.236;27.986;2023-08-01T00:39:23;4.05;;;3.65;;
10309;SDS011;5200;43.236;27.986;2023-08-01T00:41:50;5.38;;;4.43;;
10309;SDS011;5200;43.236;27.986;2023-08-01T00:44:18;4.97;;;3.92;;
10309;SDS011;5200;43.236;27.986;2023-08-01T00:46:45;4.47;;;4.07;;
10309;SDS011;5200;43.236;27.986;2023-08-01T00:49:12;4.65;;;4.25;;
10309;SDS011;5200;43.236;27.986;2023-08-01T00:51:40;4.22;;;3.80;;
10309;SDS011;5200;43.236;27.986;2023-08-01T00:54:07;4.38;;;3.97;;
10309;SDS011;5200;43.236;27.986;2023-08-01T00:56:34;5.10;;;4.53;;
10309;SDS011;5200;43.236;27.986;2023-08-01T00:59:05;5.25;;;4.18;;
10309;SDS011;5200;43.236;27.986;2023-08-01T01:01:34;4.18;;;3.78;;
10309;SDS011;5200;43.236;27.986;2023-08-01T01:04:00;4.70;;;4.30;;
10309;SDS011;5200;43.236;27.986;2023-08-01T01:06:28;4.78;;;4.25;;
10309;SDS011;5200;43.236;27.986;2023-08-01T01:08:59;6.30;;;4.45;;
10309;SDS011;5200;43.236;27.986;2023-08-01T01:11:26;6.22;;;4.40;;
10309;SDS011;5200;43.236;27.986;2023-08-01T01:13:53;4.80;;;4.40;;
10309;SDS011;5200;43.236;27.986;2023-08-01T01:16:19;4.97;;;4.57;;
10309;SDS011;5200;43.236;27.986;2023-08-01T01:18:48;5.75;;;4.82;;
10309;SDS011;5200;43.236;27.986;2023-08-01T01:21:16;5.05;;;4.57;;
10309;SDS011;5200;43.236;27.986;2023-08-01T01:23:43;5.43;;;4.93;;
10309;SDS011;5200;43.236;27.986;2023-08-01T01:26:10;6.68;;;4.63;;
10309;SDS011;5200;43.236;27.986;2023-08-01T01:28:38;5.20;;;4.43;;
10309;SDS011;5200;43.236;27.986;2023-08-01T01:31:07;4.80;;;4.40;;
10309;SDS011;5200;43.236;27.986;2023-08-01T01:33:34;7.60;;;4.47;;
10309;SDS011;5200;43.236;27.986;2023-08-01T01:36:01;5.35;;;4.03;;
10309;SDS011;5200;43.236;27.986;2023-08-01T01:38:29;5.15;;;4.65;;
10309;SDS011;5200;43.236;27.986;2023-08-01T01:40:56;5.40;;;4.90;;
10309;SDS011;5200;43.236;27.986;2023-08-01T01:43:23;5.03;;;4.63;;
10309;SDS011;5200;43.236;27.986;2023-08-01T01:45:50;5.75;;;4.90;;
10309;SDS011;5200;43.236;27.986;2023-08-01T01:48:16;6.38;;;4.80;;
10309;SDS011;5200;43.236;27.986;2023-08-01T01:50:43;5.30;;;4.80;;
10309;SDS011;5200;43.236;27.986;2023-08-01T01:53:10;4.50;;;4.10;;
10309;SDS011;5200;43.236;27.986;2023-08-01T01:55:38;7.72;;;4.97;;
10309;SDS011;5200;43.236;27.986;2023-08-01T01:58:06;8.05;;;4.40;;
10309;SDS011;5200;43.236;27.986;2023-08-01T02:00:33;5.97;;;5.10;;
10309;SDS011;5200;43.236;27.986;2023-08-01T02:02:59;5.20;;;4.15;;
10309;SDS011;5200;43.236;27.986;2023-08-01T02:05:28;6.47;;;5.00;;
10309;SDS011;5200;43.236;27.986;2023-08-01T02:07:55;4.35;;;3.95;;
10309;SDS011;5200;43.236;27.986;2023-08-01T02:10:21;5.10;;;4.60;;
10309;SDS011;5200;43.236;27.986;2023-08-01T02:12:50;5.38;;;4.10;;
10309;SDS011;5200;43.236;27.986;2023-08-01T02:15:17;6.25;;;4.68;;
10309;SDS011;5200;43.236;27.986;2023-08-01T02:17:44;4.93;;;4.43;;
10309;SDS011;5200;43.236;27.986;2023-08-01T02:20:11;6.32;;;4.20;;
10309;SDS011;5200;43.236;27.986;2023-08-01T02:22:39;4.78;;;4.40;;
10309;SDS011;5200;43.236;27.986;2023-08-01T02:25:06;5.55;;;4.18;;
10309;SDS011;5200;43.236;27.986;2023-08-01T02:27:33;4.90;;;4.40;;
10309;SDS011;5200;43.236;27.986;2023-08-01T02:30:02;6.03;;;4.10;;
10309;SDS011;5200;43.236;27.986;2023-08-01T02:32:30;4.45;;;4.05;;
10309;SDS011;5200;43.236;27.986;2023-08-01T02:34:57;4.78;;;4.25;;
10309;SDS011;5200;43.236;27.986;2023-08-01T02:37:24;4.72;;;4.30;;
10309;SDS011;5200;43.236;27.986;2023-08-01T02:39:51;4.65;;;4.25;;
10309;SDS011;5200;43.236;27.986;2023-08-01T02:42:17;4.45;;;4.10;;
10309;SDS011;5200;43.236;27.986;2023-08-01T02:44:44;6.05;;;4.57;;
10309;SDS011;5200;43.236;27.986;2023-08-01T02:47:12;4.43;;;4.03;;
10309;SDS011;5200;43.236;27.986;2023-08-01T02:49:39;4.18;;;3.80;;
10309;SDS011;5200;43.236;27.986;2023-08-01T02:52:06;4.68;;;4.20;;
10309;SDS011;5200;43.236;27.986;2023-08-01T02:54:33;4.10;;;3.80;;
10309;SDS011;5200;43.236;27.986;2023-08-01T02:57:00;5.38;;;4.38;;
10309;SDS011;5200;43.236;27.986;2023-08-01T02:59:27;4.45;;;3.97;;
10309;SDS011;5200;43.236;27.986;2023-08-01T03:01:54;4.25;;;3.92;;
10309;SDS011;5200;43.236;27.986;2023-08-01T03:04:22;6.53;;;3.85;;
10309;SDS011;5200;43.236;27.986;2023-08-01T03:06:49;4.82;;;3.92;;
10309;SDS011;5200;43.236;27.986;2023-08-01T03:09:16;3.90;;;3.60;;
10309;SDS011;5200;43.236;27.986;2023-08-01T03:11:43;4.28;;;3.88;;
10309;SDS011;5200;43.236;27.986;2023-08-01T03:14:10;4.22;;;3.55;;
10309;SDS011;5200;43.236;27.986;2023-08-01T03:16:37;4.35;;;3.95;;
10309;SDS011;5200;43.236;27.986;2023-08-01T03:19:03;3.63;;;3.33;;
10309;SDS011;5200;43.236;27.986;2023-08-01T03:21:32;3.70;;;3.40;;
10309;SDS011;5200;43.236;27.986;2023-08-01T03:24:00;4.47;;;3.38;;
10309;SDS011;5200;43.236;27.986;2023-08-01T03:26:27;3.55;;;3.25;;
10309;SDS011;5200;43.236;27.986;2023-08-01T03:28:54;3.20;;;2.90;;
10309;SDS011;5200;43.236;27.986;2023-08-01T03:31:21;3.17;;;2.97;;
10309;SDS011;5200;43.236;27.986;2023-08-01T03:33:48;3.00;;;2.80;;
10309;SDS011;5200;43.236;27.986;2023-08-01T03:36:15;2.67;;;2.47;;
10309;SDS011;5200;43.236;27.986;2023-08-01T03:38:44;2.83;;;2.63;;
10309;SDS011;5200;43.236;27.986;2023-08-01T03:41:11;3.03;;;2.83;;
10309;SDS011;5200;43.236;27.986;2023-08-01T03:43:38;2.50;;;2.30;;
10309;SDS011;5200;43.236;27.986;2023-08-01T03:46:04;2.72;;;2.53;;
10309;SDS011;5200;43.236;27.986;2023-08-01T03:48:31;3.33;;;2.72;;
10309;SDS011;5200;43.236;27.986;2023-08-01T03:50:58;2.80;;;2.60;;
10309;SDS011;5200;43.236;27.986;2023-08-01T03:53:25;3.55;;;2.30;;
10309;SDS011;5200;43.236;27.986;2023-08-01T03:55:53;2.42;;;2.22;;
10309;SDS011;5200;43.236;27.986;2023-08-01T03:58:20;2.80;;;2.60;;
10309;SDS011;5200;43.236;27.986;2023-08-01T04:00:47;2.70;;;2.50;;
10309;SDS011;5200;43.236;27.986;2023-08-01T04:03:14;2.88;;;2.60;;
10309;SDS011;5200;43.236;27.986;2023-08-01T04:05:41;2.90;;;2.60;;
10309;SDS011;5200;43.236;27.986;2023-08-01T04:08:08;3.72;;;2.78;;
10309;SDS011;5200;43.236;27.986;2023-08-01T04:10:35;3.45;;;2.50;;
10309;SDS011;5200;43.236;27.986;2023-08-01T04:13:03;3.38;;;2.53;;
10309;SDS011;5200;43.236;27.986;2023-08-01T04:15:30;2.83;;;2.60;;
10309;SDS011;5200;43.236;27.986;2023-08-01T04:17:56;3.35;;;2.60;;
10309;SDS011;5200;43.236;27.986;2023-08-01T04:20:23;4.10;;;2.60;;
10309;SDS011;5200;43.236;27.986;2023-08-01T04:22:50;2.60;;;2.40;;
10309;SDS011;5200;43.236;27.986;2023-08-01T04:25:17;2.75;;;2.55;;
10309;SDS011;5200;43.236;27.986;2023-08-01T04:27:44;2.70;;;2.47;;
10309;SDS011;5200;43.236;27.986;2023-08-01T04:30:12;3.50;;;2.50;;
10309;SDS011;5200;43.236;27.986;2023-08-01T04:32:39;4.22;;;2.60;;
10309;SDS011;5200;43.236;27.986;2023-08-01T04:35:06;3.10;;;2.80;;
10309;SDS011;5200;43.236;27.986;2023-08-01T04:40:55;3.20;;;2.50;;
10309;SDS011;5200;43.236;27.986;2023-08-01T04:43:22;2.97;;;2.28;;
10309;SDS011;5200;43.236;27.986;2023-08-01T04:45:50;3.70;;;2.60;;
10309;SDS011;5200;43.236;27.986;2023-08-01T04:48:17;2.97;;;2.58;;
10309;SDS011;5200;43.236;27.986;2023-08-01T04:50:44;3.47;;;2.47;;
10309;SDS011;5200;43.236;27.986;2023-08-01T04:53:12;2.63;;;2.42;;
10309;SDS011;5200;43.236;27.986;2023-08-01T04:55:40;3.35;;;2.53;;
10309;SDS011;5200;43.236;27.986;2023-08-01T04:58:06;4.40;;;2.80;;
10309;SDS011;5200;43.236;27.986;2023-08-01T05:00:34;2.53;;;2.33;;
10309;SDS011;5200;43.236;27.986;2023-08-01T05:03:02;2.80;;;2.55;;
10309;SDS011;5200;43.236;27.986;2023-08-01T05:05:29;3.45;;;2.30;;
10309;SDS011;5200;43.236;27.986;2023-08-01T05:07:56;3.35;;;2.20;;
10309;SDS011;5200;43.236;27.986;2023-08-01T05:10:23;2.38;;;2.28;;
10309;SDS011;5200;43.236;27.986;2023-08-01T05:12:49;5.53;;;2.53;;
10309;SDS011;5200;43.236;27.986;2023-08-01T05:15:16;2.35;;;2.15;;
10309;SDS011;5200;43.236;27.986;2023-08-01T05:17:43;2.38;;;2.22;;
10309;SDS011;5200;43.236;27.986;2023-08-01T05:20:12;2.33;;;2.13;;
10309;SDS011;5200;43.236;27.986;2023-08-01T05:22:39;3.03;;;2.20;;
10309;SDS011;5200;43.236;27.986;2023-08-01T05:25:08;2.20;;;2.10;;
10309;SDS011;5200;43.236;27.986;2023-08-01T05:27:36;2.83;;;2.20;;
10309;SDS011;5200;43.236;27.986;2023-08-01T05:30:03;2.15;;;1.95;;
10309;SDS011;5200;43.236;27.986;2023-08-01T05:32:30;3.80;;;2.20;;
10309;SDS011;5200;43.236;27.986;2023-08-01T05:34:57;2.30;;;2.10;;
10309;SDS011;5200;43.236;27.986;2023-08-01T05:37:25;2.90;;;2.33;;
10309;SDS011;5200;43.236;27.986;2023-08-01T05:39:52;2.30;;;2.10;;
10309;SDS011;5200;43.236;27.986;2023-08-01T05:42:19;2.60;;;2.40;;
10309;SDS011;5200;43.236;27.986;2023-08-01T05:44:45;2.25;;;2.05;;
10309;SDS011;5200;43.236;27.986;2023-08-01T05:47:12;2.35;;;2.10;;
10309;SDS011;5200;43.236;27.986;2023-08-01T05:49:40;3.88;;;2.08;;
10309;SDS011;5200;43.236;27.986;2023-08-01T05:52:07;2.00;;;1.80;;
10309;SDS011;5200;43.236;27.986;2023-08-01T05:54:35;2.38;;;2.10;;
10309;SDS011;5200;43.236;27.986;2023-08-01T05:57:02;2.80;;;2.20;;
10309;SDS011;5200;43.236;27.986;2023-08-01T05:59:29;2.85;;;2.13;;
10309;SDS011;5200;43.236;27.986;2023-08-01T06:01:56;1.90;;;1.80;;
10309;SDS011;5200;43.236;27.986;2023-08-01T06:04:23;3.00;;;1.92;;
10309;SDS011;5200;43.236;27.986;2023-08-01T06:06:50;1.85;;;1.60;;
10309;SDS011;5200;43.236;27.986;2023-08-01T06:09:16;1.80;;;1.70;;
10309;SDS011;5200;43.236;27.986;2023-08-01T06:11:45;5.15;;;3.03;;
10309;SDS011;5200;43.236;27.986;2023-08-01T06:14:12;5.65;;;5.10;;
10309;SDS011;5200;43.236;27.986;2023-08-01T06:16:39;8.82;;;5.85;;
10309;SDS011;5200;43.236;27.986;2023-08-01T06:19:06;7.15;;;5.55;;
10309;SDS011;5200;43.236;27.986;2023-08-01T06:21:32;7.90;;;5.43;;
10309;SDS011;5200;43.236;27.986;2023-08-01T06:23:59;7.10;;;5.70;;
10309;SDS011;5200;43.236;27.986;2023-08-01T06:26:27;6.90;;;4.80;;
10309;SDS011;5200;43.236;27.986;2023-08-01T06:28:55;8.32;;;5.00;;
10309;SDS011;5200;43.236;27.986;2023-08-01T06:31:22;7.05;;;5.15;;
10309;SDS011;5200;43.236;27.986;2023-08-01T06:33:49;7.28;;;4.85;;
10309;SDS011;5200;43.236;27.986;2023-08-01T06:36:16;7.68;;;4.95;;
10309;SDS011;5200;43.236;27.986;2023-08-01T06:38:43;8.25;;;5.07;;
10309;SDS011;5200;43.236;27.986;2023-08-01T06:41:11;6.95;;;4.65;;
10309;SDS011;5200;43.236;27.986;2023-08-01T06:43:38;6.53;;;5.88;;
10309;SDS011;5200;43.236;27.986;2023-08-01T06:46:06;7.32;;;4.93;;
10309;SDS011;5200;43.236;27.986;2023-08-01T06:48:33;5.03;;;4.53;;
10309;SDS011;5200;43.236;27.986;2023-08-01T06:51:00;8.57;;;5.55;;
10309;SDS011;5200;43.236;27.986;2023-08-01T06:53:27;5.30;;;3.85;;
10309;SDS011;5200;43.236;27.986;2023-08-01T06:55:54;4.50;;;3.67;;
10309;SDS011;5200;43.236;27.986;2023-08-01T06:58:21;7.43;;;5.35;;
10309;SDS011;5200;43.236;27.986;2023-08-01T07:00:48;6.63;;;5.78;;
10309;SDS011;5200;43.236;27.986;2023-08-01T07:03:16;7.55;;;5.40;;
10309;SDS011;5200;43.236;27.986;2023-08-01T07:05:43;5.72;;;4.35;;
10309;SDS011;5200;43.236;27.986;2023-08-01T07:08:10;5.80;;;4.20;;
10309;SDS011;5200;43.236;27.986;2023-08-01T07:10:37;11.05;;;4.40;;
10309;SDS011;5200;43.236;27.986;2023-08-01T07:13:04;5.00;;;4.57;;
10309;SDS011;5200;43.236;27.986;2023-08-01T07:15:31;7.82;;;7.07;;
10309;SDS011;5200;43.236;27.986;2023-08-01T07:17:58;9.10;;;6.43;;
10309;SDS011;5200;43.236;27.986;2023-08-01T07:20:26;13.15;;;6.35;;
10309;SDS011;5200;43.236;27.986;2023-08-01T07:22:53;7.05;;;6.18;;
10309;SDS011;5200;43.236;27.986;2023-08-01T07:25:20;6.10;;;5.50;;
10309;SDS011;5200;43.236;27.986;2023-08-01T07:27:47;6.35;;;5.18;;
10309;SDS011;5200;43.236;27.986;2023-08-01T07:30:14;15.27;;;5.78;;
10309;SDS011;5200;43.236;27.986;2023-08-01T07:32:41;8.98;;;4.90;;
10309;SDS011;5200;43.236;27.986;2023-08-01T07:35:08;6.97;;;5.05;;
10309;SDS011;5200;43.236;27.986;2023-08-01T07:37:37;16.33;;;6.90;;
10309;SDS011;5200;43.236;27.986;2023-08-01T07:40:04;6.07;;;5.45;;
10309;SDS011;5200;43.236;27.986;2023-08-01T07:42:31;5.50;;;5.00;;
10309;SDS011;5200;43.236;27.986;2023-08-01T07:44:58;8.60;;;5.63;;
10309;SDS011;5200;43.236;27.986;2023-08-01T07:47:25;7.20;;;4.10;;
10309;SDS011;5200;43.236;27.986;2023-08-01T07:49:52;6.82;;;4.28;;
10309;SDS011;5200;43.236;27.986;2023-08-01T07:52:19;5.05;;;4.65;;
10309;SDS011;5200;43.236;27.986;2023-08-01T07:54:47;6.57;;;5.47;;
10309;SDS011;5200;43.236;27.986;2023-08-01T07:57:14;4.28;;;3.88;;
10309;SDS011;5200;43.236;27.986;2023-08-01T07:59:41;5.95;;;4.22;;
10309;SDS011;5200;43.236;27.986;2023-08-01T08:02:07;5.82;;;4.20;;
10309;SDS011;5200;43.236;27.986;2023-08-01T08:04:34;4.03;;;3.42;;
10309;SDS011;5200;43.236;27.986;2023-08-01T08:07:01;5.78;;;4.47;;
10309;SDS011;5200;43.236;27.986;2023-08-01T08:09:28;4.05;;;3.63;;
10309;SDS011;5200;43.236;27.986;2023-08-01T08:11:56;3.95;;;3.60;;
10309;SDS011;5200;43.236;27.986;2023-08-01T08:14:23;3.70;;;2.88;;
10309;SDS011;5200;43.236;27.986;2023-08-01T08:16:50;7.13;;;3.40;;
10309;SDS011;5200;43.236;27.986;2023-08-01T08:19:17;3.80;;;2.90;;
10309;SDS011;5200;43.236;27.986;2023-08-01T08:21:44;3.30;;;3.00;;
10309;SDS011;5200;43.236;27.986;2023-08-01T08:24:11;3.50;;;3.20;;
10309;SDS011;5200;43.236;27.986;2023-08-01T08:26:37;4.10;;;2.88;;
10309;SDS011;5200;43.236;27.986;2023-08-01T08:29:06;2.92;;;2.65;;
10309;SDS011;5200;43.236;27.986;2023-08-01T08:31:33;3.85;;;2.95;;
10309;SDS011;5200;43.236;27.986;2023-08-01T08:34:00;3.50;;;2.78;;
10309;SDS011;5200;43.236;27.986;2023-08-01T08:36:29;2.92;;;2.63;;
10309;SDS011;5200;43.236;27.986;2023-08-01T08:38:56;3.10;;;2.80;;
10309;SDS011;5200;43.236;27.986;2023-08-01T08:41:23;2.67;;;2.47;;
10309;SDS011;5200;43.236;27.986;2023-08-01T08:43:54;3.10;;;2.80;;
10309;SDS011;5200;43.236;27.986;2023-08-01T08:46:25;4.03;;;2.80;;
10309;SDS011;5200;43.236;27.986;2023-08-01T08:48:54;2.85;;;2.58;;
10309;SDS011;5200;43.236;27.986;2023-08-01T08:51:22;3.88;;;2.70;;
10309;SDS011;5200;43.236;27.986;2023-08-01T08:53:50;4.93;;;2.83;;
10309;SDS011;5200;43.236;27.986;2023-08-01T08:56:19;3.38;;;3.08;;
10309;SDS011;5200;43.236;27.986;2023-08-01T08:58:47;5.05;;;2.95;;
10309;SDS011;5200;43.236;27.986;2023-08-01T09:01:14;3.35;;;3.00;;
10309;SDS011;5200;43.236;27.986;2023-08-01T09:03:43;3.50;;;2.88;;
10309;SDS011;5200;43.236;27.986;2023-08-01T09:06:11;2.90;;;2.70;;
10309;SDS011;5200;43.236;27.986;2023-08-01T09:08:40;2.58;;;2.38;;
10309;SDS011;5200;43.236;27.986;2023-08-01T09:11:16;3.03;;;2.72;;
10309;SDS011;5200;43.236;27.986;2023-08-01T09:13:43;4.07;;;2.80;;
10309;SDS011;5200;43.236;27.986;2023-08-01T09:16:10;2.85;;;2.65;;
10309;SDS011;5200;43.236;27.986;2023-08-01T09:18:47;2.75;;;2.55;;
10309;SDS011;5200;43.236;27.986;2023-08-01T09:21:17;2.78;;;2.40;;
10309;SDS011;5200;43.236;27.986;2023-08-01T09:23:45;2.30;;;2.20;;
10309;SDS011;5200;43.236;27.986;2023-08-01T09:26:12;2.42;;;2.22;;
10309;SDS011;5200;43.236;27.986;2023-08-01T09:28:39;3.05;;;2.20;;
10309;SDS011;5200;43.236;27.986;2023-08-01T09:31:06;4.82;;;2.85;;
10309;SDS011;5200;43.236;27.986;2023-08-01T09:33:37;2.30;;;2.10;;
10309;SDS011;5200;43.236;27.986;2023-08-01T09:36:06;3.10;;;2.50;;
10309;SDS011;5200;43.236;27.986;2023-08-01T09:38:34;4.35;;;2.30;;
10309;SDS011;5200;43.236;27.986;2023-08-01T09:41:02;2.20;;;2.10;;
10309;SDS011;5200;43.236;27.986;2023-08-01T09:43:33;3.17;;;2.58;;
10309;SDS011;5200;43.236;27.986;2023-08-01T09:46:01;2.45;;;2.25;;
10309;SDS011;5200;43.236;27.986;2023-08-01T09:48:28;2.70;;;2.50;;
10309;SDS011;5200;43.236;27.986;2023-08-01T09:51:07;2.60;;;2.40;;
10309;SDS011;5200;43.236;27.986;2023-08-01T09:53:35;2.85;;;2.20;;
10309;SDS011;5200;43.236;27.986;2023-08-01T09:56:12;2.60;;;2.25;;
10309;SDS011;5200;43.236;27.986;2023-08-01T09:58:41;2.45;;;2.28;;
10309;SDS011;5200;43.236;27.986;2023-08-01T10:01:09;2.67;;;2.47;;
10309;SDS011;5200;43.236;27.986;2023-08-01T10:03:37;2.78;;;2.53;;
10309;SDS011;5200;43.236;27.986;2023-08-01T10:06:05;2.90;;;2.70;;
10309;SDS011;5200;43.236;27.986;2023-08-01T10:08:34;2.53;;;2.33;;
10309;SDS011;5200;43.236;27.986;2023-08-01T10:11:04;2.70;;;2.50;;
10309;SDS011;5200;43.236;27.986;2023-08-01T10:13:31;2.70;;;2.50;;
10309;SDS011;5200;43.236;27.986;2023-08-01T10:15:58;2.67;;;2.47;;
10309;SDS011;5200;43.236;27.986;2023-08-01T10:18:26;3.00;;;2.50;;
10309;SDS011;5200;43.236;27.986;2023-08-01T10:20:55;3.05;;;2.85;;
10309;SDS011;5200;43.236;27.986;2023-08-01T10:23:25;2.90;;;2.70;;
10309;SDS011;5200;43.236;27.986;2023-08-01T10:25:53;2.58;;;2.38;;
10309;SDS011;5200;43.236;27.986;2023-08-01T10:28:30;4.22;;;2.80;;
10309;SDS011;5200;43.236;27.986;2023-08-01T10:31:05;3.13;;;2.88;;
10309;SDS011;5200;43.236;27.986;2023-08-01T10:33:33;2.60;;;2.40;;
10309;SDS011;5200;43.236;27.986;2023-08-01T10:36:01;3.65;;;2.53;;
10309;SDS011;5200;43.236;27.986;2023-08-01T10:38:45;2.58;;;2.38;;
10309;SDS011;5200;43.236;27.986;2023-08-01T10:41:24;7.90;;;3.38;;
10309;SDS011;5200;43.236;27.986;2023-08-01T10:44:03;3.08;;;2.78;;
10309;SDS011;5200;43.236;27.986;2023-08-01T10:46:44;2.70;;;2.50;;
10309;SDS011;5200;43.236;27.986;2023-08-01T10:49:12;3.33;;;2.55;;
10309;SDS011;5200;43.236;27.986;2023-08-01T10:51:40;3.88;;;2.47;;
10309;SDS011;5200;43.236;27.986;2023-08-01T10:54:08;3.97;;;2.90;;
10309;SDS011;5200;43.236;27.986;2023-08-01T10:56:46;3.90;;;2.70;;
10309;SDS011;5200;43.236;27.986;2023-08-01T10:59:13;2.83;;;2.50;;
10309;SDS011;5200;43.236;27.986;2023-08-01T11:01:44;3.25;;;2.95;;
10309;SDS011;5200;43.236;27.986;2023-08-01T11:04:15;2.95;;;2.70;;
10309;SDS011;5200;43.236;27.986;2023-08-01T11:06:43;5.85;;;2.95;;
10309;SDS011;5200;43.236;27.986;2023-08-01T11:09:16;3.03;;;2.70;;
10309;SDS011;5200;43.236;27.986;2023-08-01T11:11:44;3.15;;;2.90;;
10309;SDS011;5200;43.236;27.986;2023-08-01T11:14:13;3.00;;;2.63;;
10309;SDS011;5200;43.236;27.986;2023-08-01T11:16:41;3.03;;;2.83;;
10309;SDS011;5200;43.236;27.986;2023-08-01T11:19:17;2.63;;;2.42;;
10309;SDS011;5200;43.236;27.986;2023-08-01T11:21:44;2.88;;;2.60;;
10309;SDS011;5200;43.236;27.986;2023-08-01T11:24:11;2.70;;;2.50;;
10309;SDS011;5200;43.236;27.986;2023-08-01T11:26:41;5.07;;;2.53;;
10309;SDS011;5200;43.236;27.986;2023-08-01T11:29:09;3.10;;;2.80;;
10309;SDS011;5200;43.236;27.986;2023-08-01T11:31:36;2.50;;;2.33;;
10309;SDS011;5200;43.236;27.986;2023-08-01T11:34:03;4.03;;;2.60;;
10309;SDS011;5200;43.236;27.986;2023-08-01T11:36:30;2.90;;;2.65;;
10309;SDS011;5200;43.236;27.986;2023-08-01T11:38:57;2.88;;;2.67;;
10309;SDS011;5200;43.236;27.986;2023-08-01T11:41:25;3.58;;;2.80;;
10309;SDS011;5200;43.236;27.986;2023-08-01T11:43:54;3.10;;;2.80;;
10309;SDS011;5200;43.236;27.986;2023-08-01T11:46:21;4.93;;;3.15;;
10309;SDS011;5200;43.236;27.986;2023-08-01T11:48:49;4.40;;;2.92;;
10309;SDS011;5200;43.236;27.986;2023-08-01T11:51:16;2.50;;;2.40;;
10309;SDS011;5200;43.236;27.986;2023-08-01T11:53:43;4.28;;;2.67;;
10309;SDS011;5200;43.236;27.986;2023-08-01T11:56:19;4.53;;;2.70;;
10309;SDS011;5200;43.236;27.986;2023-08-01T11:58:46;4.25;;;2.55;;
10309;SDS011;5200;43.236;27.986;2023-08-01T12:01:15;2.50;;;2.30;;
10309;SDS011;5200;43.236;27.986;2023-08-01T12:03:42;3.03;;;2.78;;
10309;SDS011;5200;43.236;27.986;2023-08-01T12:06:10;2.92;;;2.63;;
10309;SDS011;5200;43.236;27.986;2023-08-01T12:08:38;3.33;;;2.47;;
10309;SDS011;5200;43.236;27.986;2023-08-01T12:11:06;2.63;;;2.42;;
10309;SDS011;5200;43.236;27.986;2023-08-01T12:13:43;2.80;;;2.60;;
10309;SDS011;5200;43.236;27.986;2023-08-01T12:16:10;3.05;;;2.65;;
10309;SDS011;5200;43.236;27.986;2023-08-01T12:18:41;3.13;;;2.70;;
10309;SDS011;5200;43.236;27.986;2023-08-01T12:21:10;3.88;;;2.58;;
10309;SDS011;5200;43.236;27.986;2023-08-01T12:23:36;3.38;;;2.50;;
10309;SDS011;5200;43.236;27.986;2023-08-01T12:26:03;2.70;;;2.50;;
10309;SDS011;5200;43.236;27.986;2023-08-01T12:28:30;2.90;;;2.70;;
10309;SDS011;5200;43.236;27.986;2023-08-01T12:30:57;2.53;;;2.38;;
10309;SDS011;5200;43.236;27.986;2023-08-01T12:33:24;2.53;;;2.20;;
10309;SDS011;5200;43.236;27.986;2023-08-01T12:35:52;3.67;;;2.63;;
10309;SDS011;5200;43.236;27.986;2023-08-01T12:40:57;3.42;;;2.58;;
10309;SDS011;5200;43.236;27.986;2023-08-01T12:43:24;2.58;;;2.40;;
10309;SDS011;5200;43.236;27.986;2023-08-01T12:45:51;4.13;;;2.33;;
10309;SDS011;5200;43.236;27.986;2023-08-01T12:48:18;2.70;;;2.50;;
10309;SDS011;5200;43.236;27.986;2023-08-01T12:50:45;3.03;;;2.53;;
10309;SDS011;5200;43.236;27.986;2023-08-01T12:53:14;2.80;;;2.60;;
10309;SDS011;5200;43.236;27.986;2023-08-01T12:55:42;2.83;;;2.60;;
10309;SDS011;5200;43.236;27.986;2023-08-01T12:58:09;3.03;;;2.38;;
10309;SDS011;5200;43.236;27.986;2023-08-01T13:00:36;2.30;;;2.15;;
10309;SDS011;5200;43.236;27.986;2023-08-01T13:03:03;2.72;;;2.53;;
10309;SDS011;5200;43.236;27.986;2023-08-01T13:05:33;2.55;;;2.45;;
10309;SDS011;5200;43.236;27.986;2023-08-01T13:08:00;2.55;;;2.35;;
10309;SDS011;5200;43.236;27.986;2023-08-01T13:10:30;2.95;;;2.75;;
10309;SDS011;5200;43.236;27.986;2023-08-01T13:12:57;2.58;;;2.25;;
10309;SDS011;5200;43.236;27.986;2023-08-01T13:15:24;2.45;;;2.30;;
10309;SDS011;5200;43.236;27.986;2023-08-01T13:17:51;2.92;;;2.63;;
10309;SDS011;5200;43.236;27.986;2023-08-01T13:20:18;2.50;;;2.30;;
10309;SDS011;5200;43.236;27.986;2023-08-01T13:22:46;3.80;;;2.63;;
10309;SDS011;5200;43.236;27.986;2023-08-01T13:25:14;2.60;;;2.40;;
10309;SDS011;5200;43.236;27.986;2023-08-01T13:27:43;4.22;;;2.47;;
10309;SDS011;5200;43.236;27.986;2023-08-01T13:30:10;2.35;;;2.25;;
10309;SDS011;5200;43.236;27.986;2023-08-01T13:32:39;2.50;;;2.33;;
10309;SDS011;5200;43.236;27.986;2023-08-01T13:35:07;2.60;;;2.40;;
10309;SDS011;5200;43.236;27.986;2023-08-01T13:37:34;2.42;;;2.22;;
10309;SDS011;5200;43.236;27.986;2023-08-01T13:40:01;2.40;;;2.20;;
10309;SDS011;5200;43.236;27.986;2023-08-01T13:42:28;3.30;;;2.40;;
10309;SDS011;5200;43.236;27.986;2023-08-01T13:44:56;6.05;;;2.53;;
10309;SDS011;5200;43.236;27.986;2023-08-01T13:47:23;2.28;;;2.17;;
10309;SDS011;5200;43.236;27.986;2023-08-01T13:49:50;4.35;;;2.47;;
10309;SDS011;5200;43.236;27.986;2023-08-01T13:52:17;2.17;;;2.08;;
10309;SDS011;5200;43.236;27.986;2023-08-01T13:54:44;2.10;;;2.00;;
10309;SDS011;5200;43.236;27.986;2023-08-01T13:57:11;2.50;;;2.30;;
10309;SDS011;5200;43.236;27.986;2023-08-01T13:59:37;2.60;;;2.40;;
10309;SDS011;5200;43.236;27.986;2023-08-01T14:02:06;2.33;;;2.22;;
10309;SDS011;5200;43.236;27.986;2023-08-01T14:04:33;2.38;;;2.08;;
10309;SDS011;5200;43.236;27.986;2023-08-01T14:06:59;3.53;;;2.60;;
10309;SDS011;5200;43.236;27.986;2023-08-01T14:09:28;3.95;;;2.60;;
10309;SDS011;5200;43.236;27.986;2023-08-01T14:11:57;2.10;;;2.00;;
10309;SDS011;5200;43.236;27.986;2023-08-01T14:14:24;2.20;;;2.00;;
10309;SDS011;5200;43.236;27.986;2023-08-01T14:16:51;2.40;;;2.20;;
10309;SDS011;5200;43.236;27.986;2023-08-01T14:19:19;2.42;;;2.22;;
10309;SDS011;5200;43.236;27.986;2023-08-01T14:21:46;2.30;;;2.20;;
10309;SDS011;5200;43.236;27.986;2023-08-01T14:24:12;2.60;;;2.40;;
10309;SDS011;5200;43.236;27.986;2023-08-01T14:26:39;3.35;;;3.05;;
10309;SDS011;5200;43.236;27.986;2023-08-01T14:29:06;2.30;;;2.20;;
10309;SDS011;5200;43.236;27.986;2023-08-01T14:31:33;2.45;;;2.25;;
10309;SDS011;5200;43.236;27.986;2023-08-01T14:34:00;2.70;;;2.50;;
10309;SDS011;5200;43.236;27.986;2023-08-01T14:36:28;2.65;;;2.45;;
10309;SDS011;5200;43.236;27.986;2023-08-01T14:38:55;2.92;;;2.72;;
10309;SDS011;5200;43.236;27.986;2023-08-01T14:41:24;3.13;;;2.50;;
10309;SDS011;5200;43.236;27.986;2023-08-01T14:43:51;2.50;;;2.30;;
10309;SDS011;5200;43.236;27.986;2023-08-01T14:46:17;2.63;;;2.42;;
10309;SDS011;5200;43.236;27.986;2023-08-01T14:48:45;2.60;;;2.40;;
10309;SDS011;5200;43.236;27.986;2023-08-01T14:51:12;2.70;;;2.50;;
10309;SDS011;5200;43.236;27.986;2023-08-01T14:53:40;3.70;;;2.45;;
10309;SDS011;5200;43.236;27.986;2023-08-01T14:56:07;2.75;;;2.55;;